Time;durP1;ratioP1;P1;durP2;ratioP2;P2;SDS_P1;SDS_P2;PMS_P1;PMS_P2;Temp;Humidity;BMP_temperature;BMP_pressure;BME280_temperature;BME280_humidity;BME280_pressure;Samples;Min_cycle;Max_cycle;Signal;HPM_P1;HPM_P2
2022/05/12 00:01:17;;;;;;;5.20;4.80;;;;;;;16.80;53.24;98846.47;425916;1286;142877;-48
2022/05/12 00:11:23;;;;;;;5.80;5.30;;;;;;;16.69;53.51;98834.41;427198;1287;140955;-48
2022/05/12 00:21:29;;;;;;;4.70;4.20;;;;;;;16.64;53.44;98824.57;425545;1285;141021;-48
2022/05/12 00:31:37;;;;;;;6.10;4.40;;;;;;;16.61;53.54;98810.92;430058;1285;141136;-48
2022/05/12 00:41:43;;;;;;;4.80;4.40;;;;;;;16.57;53.62;98804.95;427634;1286;141023;-45
2022/05/12 00:51:53;;;;;;;6.10;4.70;;;;;;;16.52;53.65;98804.79;426508;1285;142137;-48
2022/05/12 01:02:01;;;;;;;6.50;4.60;;;;;;;16.44;53.73;98795.04;431139;1285;142060;-50
2022/05/12 01:12:08;;;;;;;5.70;5.20;;;;;;;16.38;53.63;98793.09;427102;1285;141943;-47
2022/05/12 01:22:36;;;;;;;4.50;4.10;;;;;;;16.35;53.80;98784.58;430539;1286;141795;-45
2022/05/12 01:32:43;;;;;;;5.00;4.30;;;;;;;16.35;53.88;98779.31;429410;1285;144806;-50
2022/05/12 01:42:50;;;;;;;6.70;4.20;;;;;;;16.38;53.73;98770.73;429147;1285;140874;-46
2022/05/12 01:52:56;;;;;;;4.80;4.30;;;;;;;16.35;53.68;98765.65;427325;1285;142210;-45
2022/05/12 02:03:02;;;;;;;4.40;4.00;;;;;;;16.31;53.78;98758.49;424694;1286;143281;-49
2022/05/12 02:13:11;;;;;;;6.20;4.00;;;;;;;16.29;53.80;98755.40;427084;1287;141455;-45
2022/05/12 02:23:17;;;;;;;3.80;3.40;;;;;;;16.27;53.96;98747.11;429037;1287;141978;-47
2022/05/12 02:33:24;;;;;;;6.50;4.00;;;;;;;16.26;53.90;98739.73;428202;1285;141379;-51
2022/05/12 02:43:31;;;;;;;5.70;4.30;;;;;;;16.26;53.88;98733.03;426968;1287;142377;-46
2022/05/12 02:53:38;;;;;;;4.50;4.00;;;;;;;16.22;54.00;98727.79;426284;1286;140284;-47
2022/05/12 03:03:44;;;;;;;4.10;3.70;;;;;;;16.24;54.10;98721.27;426568;1285;141610;-48
2022/05/12 03:13:50;;;;;;;5.30;3.70;;;;;;;16.28;54.04;98723.48;426138;1285;141885;-46
2022/05/12 03:23:56;;;;;;;6.60;3.50;;;;;;;16.32;54.07;98718.81;426297;1285;142269;-46
2022/05/12 03:34:01;;;;;;;3.50;3.30;;;;;;;16.45;54.08;98719.11;427183;1285;141692;-48
2022/05/12 03:54:31;;;;;;;4.20;3.80;;;;;;;16.99;53.45;98709.75;425032;1285;142361;-48
2022/05/12 04:04:37;;;;;;;4.40;3.50;;;;;;;17.54;52.94;98708.93;426977;1285;143217;-50
2022/05/12 04:14:44;;;;;;;5.90;3.50;;;;;;;18.54;51.79;98706.25;426908;1285;141344;-57
2022/05/12 04:24:50;;;;;;;11.30;4.50;;;;;;;22.29;48.39;98698.86;426784;1285;141915;-58
2022/05/12 04:35:12;;;;;;;7.00;3.00;;;;;;;26.92;41.39;98690.82;425739;1285;145037;-59
2022/05/12 04:45:21;;;;;;;6.20;3.30;;;;;;;24.28;40.56;98694.95;427753;1285;142933;-58
2022/05/12 04:55:27;;;;;;;3.60;3.40;;;;;;;27.31;39.07;98688.23;428937;1285;140646;-58
2022/05/12 05:05:33;;;;;;;6.00;3.20;;;;;;;33.55;33.05;98687.34;435332;1285;140865;-57
2022/05/12 05:15:39;;;;;;;15.10;4.30;;;;;;;36.37;28.39;98677.11;425689;1285;141273;-57
2022/05/12 05:25:45;;;;;;;7.30;3.10;;;;;;;40.20;24.83;98675.98;428113;1285;181972;-58
2022/05/12 05:35:51;;;;;;;4.80;2.40;;;;;;;41.62;21.80;98689.59;425779;1284;141430;-57
2022/05/12 05:45:57;;;;;;;13.90;3.20;;;;;;;43.00;20.26;98693.35;426919;1285;141627;-57
2022/05/12 05:56:05;;;;;;;11.40;2.90;;;;;;;43.83;18.62;98693.66;438602;1286;142343;-57
2022/05/12 06:06:11;;;;;;;7.60;2.50;;;;;;;44.92;17.40;98693.80;436555;1286;141458;-57
2022/05/12 06:16:17;;;;;;;17.10;4.00;;;;;;;46.04;16.07;98709.20;439660;1286;141373;-57
2022/05/12 06:26:24;;;;;;;26.60;4.90;;;;;;;46.15;15.57;98712.35;442120;1285;141652;-58
2022/05/12 06:36:30;;;;;;;14.80;5.10;;;;;;;46.33;14.83;98719.30;435377;1285;143876;-59
2022/05/12 06:46:38;;;;;;;18.10;3.50;;;;;;;47.59;13.98;98715.23;426653;1286;141921;-58
2022/05/12 06:56:44;;;;;;;24.10;4.60;;;;;;;48.85;12.88;98718.87;432207;1286;141719;-60
2022/05/12 07:06:50;;;;;;;107.50;14.60;;;;;;;49.34;12.35;98734.83;426851;1285;142964;-57
2022/05/12 07:16:56;;;;;;;71.20;10.10;;;;;;;47.62;12.03;98749.04;426834;1285;142285;-60
2022/05/12 07:27:02;;;;;;;23.90;5.20;;;;;;;42.67;14.03;98770.73;425874;1285;141979;-60
2022/05/12 07:37:08;;;;;;;30.70;5.10;;;;;;;42.52;14.68;98783.91;427133;1286;142078;-69
2022/05/12 07:47:14;;;;;;;30.20;5.60;;;;;;;40.74;15.24;98802.88;427077;1286;141365;-61
2022/05/12 07:57:21;;;;;;;15.60;4.00;;;;;;;37.98;17.55;98830.06;426782;1286;141434;-61
2022/05/12 08:07:29;;;;;;;7.50;3.30;;;;;;;35.78;18.76;98836.71;428038;1287;141892;-60
2022/05/12 08:17:35;;;;;;;10.50;3.80;;;;;;;30.97;23.28;98862.96;427050;1287;140547;-62
2022/05/12 08:27:41;;;;;;;20.80;5.10;;;;;;;28.30;27.58;98917.98;427027;1287;145284;-59
2022/05/12 08:37:47;;;;;;;6.20;3.30;;;;;;;27.24;30.08;98936.05;426954;1287;145374;-61
2022/05/12 08:47:55;;;;;;;11.20;4.60;;;;;;;27.29;30.82;98967.83;426812;1286;141904;-60
2022/05/12 08:58:05;;;;;;;26.30;4.70;;;;;;;27.22;30.74;98990.70;427413;1286;141889;-56
2022/05/12 09:08:18;;;;;;;8.30;2.70;;;;;;;26.45;31.15;99007.19;427965;1286;143888;-60
2022/05/12 09:18:31;;;;;;;7.00;2.30;;;;;;;26.27;31.12;99004.59;427027;1285;141264;-60
2022/05/12 09:28:41;;;;;;;17.00;3.20;;;;;;;26.49;29.74;99035.17;427145;1285;143328;-60
2022/05/12 09:38:54;;;;;;;14.40;2.40;;;;;;;26.02;30.03;99055.64;427086;1285;378041;-57
2022/05/12 09:49:19;;;;;;;11.00;1.20;;;;;;;25.19;31.02;99085.30;427612;1285;141131;-58
2022/05/12 09:59:27;;;;;;;41.40;5.60;;;;;;;25.03;31.46;99103.19;426996;1287;143302;-57
2022/05/12 10:09:35;;;;;;;33.70;5.40;;;;;;;24.58;31.32;99107.95;425885;1287;141473;-63
2022/05/12 10:19:42;;;;;;;21.40;2.40;;;;;;;23.97;31.49;99117.86;426582;1285;141935;-61
2022/05/12 10:29:55;;;;;;;13.10;1.70;;;;;;;23.79;31.31;99118.41;426226;1285;142951;-62
2022/05/12 10:40:16;;;;;;;22.50;2.90;;;;;;;23.97;31.20;99124.21;427702;1286;141108;-64
2022/05/12 10:50:25;;;;;;;10.50;2.00;;;;;;;24.33;31.28;99139.77;427286;1286;152199;-63
2022/05/12 11:00:53;;;;;;;7.20;0.90;;;;;;;24.48;31.62;99168.94;425790;1287;144223;-60
2022/05/12 11:11:03;;;;;;;17.60;2.70;;;;;;;24.08;32.06;99186.02;427930;1285;140718;-60
2022/05/12 11:21:17;;;;;;;23.50;2.60;;;;;;;23.82;31.67;99187.03;427908;1286;141183;-60
2022/05/12 11:31:36;;;;;;;14.10;1.60;;;;;;;23.69;31.19;99205.26;428066;1286;141118;-58
2022/05/12 11:41:44;;;;;;;28.30;3.40;;;;;;;23.17;30.17;99215.68;427705;1286;141197;-59
2022/05/12 11:52:01;;;;;;;19.10;2.20;;;;;;;22.77;29.42;99221.86;427199;1287;141254;-58
2022/05/12 12:02:28;;;;;;;22.60;3.50;;;;;;;22.68;28.15;99232.48;427075;1287;142574;-63
2022/05/12 12:13:02;;;;;;;11.20;1.40;;;;;;;22.79;27.10;99236.33;426798;1286;141642;-59
2022/05/12 12:23:27;;;;;;;8.90;1.60;;;;;;;22.67;26.69;99244.59;426378;1286;144026;-56
2022/05/12 12:34:06;;;;;;;15.40;1.60;;;;;;;22.52;26.95;99252.84;427789;1287;144927;-58
2022/05/12 12:44:24;;;;;;;13.10;1.10;;;;;;;22.53;27.17;99250.36;427516;1287;142696;-56
2022/05/12 13:05:06;;;;;;;14.80;1.90;;;;;;;22.48;25.95;99261.84;428145;1285;127427;-56
2022/05/12 13:15:21;;;;;;;14.70;1.40;;;;;;;22.41;25.91;99262.07;427973;1287;145828;-50
2022/05/12 13:25:30;;;;;;;16.20;1.80;;;;;;;22.54;26.65;99271.48;428959;1286;141186;-49
2022/05/12 13:35:35;;;;;;;5.50;1.10;;;;;;;22.52;27.67;99283.16;427595;1287;141182;-49
2022/05/12 13:45:43;;;;;;;6.20;1.40;;;;;;;22.35;28.39;99283.54;427194;1287;141549;-49
2022/05/12 13:56:11;;;;;;;13.10;1.80;;;;;;;22.36;29.11;99301.95;427765;1287;142119;-48
2022/05/12 14:06:28;;;;;;;6.50;0.80;;;;;;;21.92;29.86;99315.42;435696;1287;144336;-52
2022/05/12 14:27:01;;;;;;;12.10;1.50;;;;;;;21.59;31.20;99330.03;427868;1285;141790;-47
2022/05/12 14:37:08;;;;;;;9.70;0.90;;;;;;;21.51;31.31;99335.58;427337;1287;142886;-49
2022/05/12 14:47:20;;;;;;;4.70;0.90;;;;;;;21.40;30.98;99336.45;427871;1287;140913;-46
2022/05/12 14:57:26;;;;;;;5.10;1.40;;;;;;;21.20;31.02;99335.28;427477;1287;142080;-50
2022/05/12 15:07:32;;;;;;;5.20;0.90;;;;;;;21.36;30.51;99337.10;427980;1287;141484;-50
2022/05/12 15:17:40;;;;;;;2.70;0.60;;;;;;;21.25;30.29;99343.63;427883;1286;141947;-50
2022/05/12 15:27:49;;;;;;;3.80;0.60;;;;;;;21.03;30.14;99355.06;428215;1286;140940;-48
2022/05/12 15:37:55;;;;;;;2.90;0.60;;;;;;;20.98;29.95;99348.28;427608;1287;140692;-49
2022/05/12 15:48:02;;;;;;;5.30;0.90;;;;;;;20.89;29.89;99346.91;427778;1287;141653;-51
2022/05/12 15:58:08;;;;;;;2.70;0.60;;;;;;;20.93;29.91;99355.23;426651;1286;144720;-49
2022/05/12 16:08:15;;;;;;;4.40;0.40;;;;;;;20.66;30.45;99356.14;428378;1287;142764;-50
2022/05/12 16:18:21;;;;;;;10.10;1.70;;;;;;;20.33;31.63;99358.68;426732;1287;142312;-50
2022/05/12 16:28:31;;;;;;;6.40;1.20;;;;;;;20.38;32.00;99353.59;427501;1287;144202;-48
2022/05/12 16:38:38;;;;;;;1.90;1.20;;;;;;;20.07;32.81;99364.45;427551;1287;141409;-47
2022/05/12 16:48:44;;;;;;;4.00;0.80;;;;;;;19.73;33.71;99375.47;426015;1287;143247;-47
2022/05/12 16:58:50;;;;;;;2.10;0.80;;;;;;;19.62;34.46;99382.86;430042;1285;141141;-48
2022/05/12 17:08:56;;;;;;;1.90;0.70;;;;;;;19.30;35.14;99386.41;427383;1287;142094;-46
2022/05/12 17:19:22;;;;;;;4.00;0.80;;;;;;;19.07;35.72;99383.92;427554;1287;141945;-49
2022/05/12 17:29:33;;;;;;;3.50;0.90;;;;;;;19.05;35.98;99387.36;427715;1286;142825;-48
2022/05/12 17:39:41;;;;;;;4.20;0.50;;;;;;;19.05;36.16;99396.21;426463;1285;142530;-51
2022/05/12 17:49:47;;;;;;;3.90;1.10;;;;;;;18.61;36.39;99406.16;427665;1286;145352;-53
2022/05/12 17:59:53;;;;;;;2.20;0.60;;;;;;;18.12;36.86;99405.27;427288;1287;141391;-50
2022/05/12 18:09:59;;;;;;;4.70;1.60;;;;;;;17.64;37.33;99417.88;427101;1287;140821;-49
2022/05/12 18:20:07;;;;;;;5.80;0.80;;;;;;;17.19;38.00;99431.83;427568;1287;141195;-52
2022/05/12 18:30:17;;;;;;;2.00;0.70;;;;;;;16.81;38.54;99445.76;426904;1287;142041;-50
2022/05/12 18:40:24;;;;;;;2.60;0.60;;;;;;;16.45;39.13;99463.13;427269;1285;212209;-49
2022/05/12 18:50:30;;;;;;;3.90;0.90;;;;;;;16.13;39.59;99480.27;426401;1285;141565;-49
2022/05/12 19:00:38;;;;;;;4.20;1.20;;;;;;;15.82;39.86;99492.84;425999;1285;142313;-51
2022/05/12 19:10:44;;;;;;;4.40;1.60;;;;;;;15.57;40.01;99511.10;427128;1285;142229;-49
2022/05/12 19:20:52;;;;;;;6.60;3.60;;;;;;;15.30;40.14;99515.50;427737;1285;141746;-49
2022/05/12 19:30:58;;;;;;;6.00;5.00;;;;;;;15.02;40.61;99519.55;426328;1286;142409;-51
2022/05/12 19:41:05;;;;;;;8.30;3.50;;;;;;;14.70;41.55;99523.09;426861;1287;142107;-48
2022/05/12 19:51:14;;;;;;;6.30;2.20;;;;;;;14.28;42.77;99523.82;426187;1285;140883;-48
2022/05/12 20:01:21;;;;;;;9.00;2.20;;;;;;;13.85;44.06;99525.94;427236;1286;143314;-47
2022/05/12 20:11:27;;;;;;;5.20;1.30;;;;;;;13.45;45.21;99528.66;426709;1285;143096;-51
2022/05/12 20:21:33;;;;;;;2.50;1.10;;;;;;;13.04;46.54;99532.45;425871;1285;141827;-48
2022/05/12 20:31:41;;;;;;;2.40;1.30;;;;;;;12.66;47.50;99537.34;427564;1285;141220;-53
2022/05/12 20:41:48;;;;;;;15.70;3.70;;;;;;;12.31;48.53;99531.60;427206;1285;141564;-53
2022/05/12 20:51:53;;;;;;;1.80;1.50;;;;;;;12.01;49.54;99537.95;426599;1285;141883;-49
2022/05/12 21:01:59;;;;;;;5.30;1.40;;;;;;;11.69;50.26;99543.28;426620;1285;142085;-49
2022/05/12 21:12:07;;;;;;;7.20;2.50;;;;;;;11.35;51.58;99553.31;426916;1285;141518;-46
2022/05/12 21:22:13;;;;;;;5.30;1.80;;;;;;;11.04;52.65;99558.34;428773;1286;142408;-48
2022/05/12 21:32:19;;;;;;;6.70;2.10;;;;;;;10.81;53.29;99564.77;427064;1285;344825;-49
2022/05/12 21:42:25;;;;;;;9.10;3.00;;;;;;;10.58;54.20;99575.31;427092;1285;143329;-50
2022/05/12 21:52:31;;;;;;;6.80;3.20;;;;;;;10.39;54.77;99580.85;427599;1285;141494;-49
2022/05/12 22:02:37;;;;;;;12.30;3.60;;;;;;;10.27;55.44;99583.75;427515;1285;141234;-48
2022/05/12 22:12:43;;;;;;;6.30;2.90;;;;;;;10.18;56.24;99590.54;426254;1285;145424;-47
2022/05/12 22:22:48;;;;;;;9.60;5.80;;;;;;;10.14;56.94;99592.41;426797;1285;141591;-48
2022/05/12 22:32:54;;;;;;;5.80;3.60;;;;;;;10.10;57.45;99601.59;426681;1285;145506;-48
2022/05/12 22:43:01;;;;;;;8.10;4.00;;;;;;;10.01;57.90;99603.34;426275;1286;142375;-49
2022/05/12 22:53:07;;;;;;;8.00;4.10;;;;;;;9.93;58.51;99603.27;427144;1285;141610;-48
2022/05/12 23:03:13;;;;;;;7.10;4.30;;;;;;;9.94;58.92;99612.65;426784;1286;146338;-50
2022/05/12 23:13:19;;;;;;;18.10;5.60;;;;;;;9.94;59.45;99612.68;426631;1285;143361;-47
2022/05/12 23:23:25;;;;;;;11.30;4.30;;;;;;;9.98;59.80;99605.79;426689;1285;142135;-51
2022/05/12 23:33:31;;;;;;;10.50;4.40;;;;;;;9.97;59.95;99602.88;425557;1287;146732;-50
2022/05/12 23:43:37;;;;;;;8.70;6.00;;;;;;;9.99;60.24;99602.56;426677;1285;143833;-47
2022/05/12 23:53:42;;;;;;;13.80;5.30;;;;;;;10.01;60.64;99608.95;426596;1284;142333;-48
